sensor_id;sensor_type;location;lat;lon;timestamp;pressure;altitude;pressure_sealevel;temperature;humidity
59513;BME280;45330;51.634;5.562;2023-07-20T00:00:01;101273.72;;;15.71;100.00
59513;BME280;45330;51.634;5.562;2023-07-20T00:02:26;101304.25;;;15.75;100.00
59513;BME280;45330;51.634;5.562;2023-07-20T00:04:52;101277.69;;;15.48;100.00
59513;BME280;45330;51.634;5.562;2023-07-20T00:07:17;101267.97;;;15.53;100.00
59513;BME280;45330;51.634;5.562;2023-07-20T00:09:42;101307.81;;;15.74;100.00
59513;BME280;45330;51.634;5.562;2023-07-20T00:12:08;101310.31;;;15.80;100.00
59513;BME280;45330;51.634;5.562;2023-07-20T00:14:33;101304.19;;;15.81;100.00
59513;BME280;45330;51.634;5.562;2023-07-20T00:16:59;101262.56;;;15.63;100.00
59513;BME280;45330;51.634;5.562;2023-07-20T00:19:28;101276.63;;;15.58;100.00
59513;BME280;45330;51.634;5.562;2023-07-20T00:21:54;101281.94;;;15.54;100.00
59513;BME280;45330;51.634;5.562;2023-07-20T00:24:20;101288.75;;;15.64;100.00
59513;BME280;45330;51.634;5.562;2023-07-20T00:26:45;101287.16;;;15.57;100.00
59513;BME280;45330;51.634;5.562;2023-07-20T00:29:11;101313.81;;;15.82;100.00
59513;BME280;45330;51.634;5.562;2023-07-20T00:31:36;101280.22;;;15.54;100.00
59513;BME280;45330;51.634;5.562;2023-07-20T00:34:05;101320.97;;;15.71;100.00
59513;BME280;45330;51.634;5.562;2023-07-20T00:36:32;101275.31;;;15.36;100.00
59513;BME280;45330;51.634;5.562;2023-07-20T00:38:57;101309.88;;;15.56;100.00
59513;BME280;45330;51.634;5.562;2023-07-20T00:41:23;101295.16;;;15.49;100.00
59513;BME280;45330;51.634;5.562;2023-07-20T00:43:50;101281.25;;;15.44;100.00
59513;BME280;45330;51.634;5.562;2023-07-20T00:46:16;101309.00;;;15.57;100.00
59513;BME280;45330;51.634;5.562;2023-07-20T00:48:42;101247.53;;;15.25;100.00
59513;BME280;45330;51.634;5.562;2023-07-20T00:51:07;101313.31;;;15.60;100.00
59513;BME280;45330;51.634;5.562;2023-07-20T00:53:33;101314.47;;;15.45;100.00
59513;BME280;45330;51.634;5.562;2023-07-20T00:55:59;101321.47;;;15.44;100.00
59513;BME280;45330;51.634;5.562;2023-07-20T00:58:24;101311.19;;;15.34;100.00
59513;BME280;45330;51.634;5.562;2023-07-20T01:00:50;101263.69;;;15.02;100.00
59513;BME280;45330;51.634;5.562;2023-07-20T01:03:15;101285.13;;;15.26;100.00
59513;BME280;45330;51.634;5.562;2023-07-20T01:11:39;101321.88;;;15.21;100.00
59513;BME280;45330;51.634;5.562;2023-07-20T01:14:09;101312.56;;;15.06;100.00
59513;BME280;45330;51.634;5.562;2023-07-20T01:16:35;101324.69;;;15.12;100.00
59513;BME280;45330;51.634;5.562;2023-07-20T01:19:00;101318.78;;;14.98;100.00
59513;BME280;45330;51.634;5.562;2023-07-20T01:21:36;101325.81;;;14.97;100.00
59513;BME280;45330;51.634;5.562;2023-07-20T01:24:30;101331.19;;;14.89;100.00
59513;BME280;45330;51.634;5.562;2023-07-20T01:32:22;101326.84;;;14.87;100.00
59513;BME280;45330;51.634;5.562;2023-07-20T01:34:49;101324.34;;;14.79;100.00
59513;BME280;45330;51.634;5.562;2023-07-20T01:37:17;101328.06;;;14.66;100.00
59513;BME280;45330;51.634;5.562;2023-07-20T01:39:45;101288.28;;;14.39;100.00
59513;BME280;45330;51.634;5.562;2023-07-20T01:42:11;101292.63;;;14.38;100.00
59513;BME280;45330;51.634;5.562;2023-07-20T01:44:38;101304.84;;;14.39;100.00
59513;BME280;45330;51.634;5.562;2023-07-20T01:47:03;101333.53;;;14.46;100.00
59513;BME280;45330;51.634;5.562;2023-07-20T01:49:29;101285.94;;;14.17;100.00
59513;BME280;45330;51.634;5.562;2023-07-20T01:51:54;101302.34;;;14.29;100.00
59513;BME280;45330;51.634;5.562;2023-07-20T01:54:20;101309.44;;;14.23;100.00
59513;BME280;45330;51.634;5.562;2023-07-20T01:56:46;101329.16;;;14.48;100.00
59513;BME280;45330;51.634;5.562;2023-07-20T01:59:11;101327.53;;;14.39;100.00
59513;BME280;45330;51.634;5.562;2023-07-20T02:01:37;101307.56;;;14.32;100.00
59513;BME280;45330;51.634;5.562;2023-07-20T02:04:02;101318.72;;;14.45;100.00
59513;BME280;45330;51.634;5.562;2023-07-20T02:06:28;101338.63;;;14.56;100.00
59513;BME280;45330;51.634;5.562;2023-07-20T02:08:53;101337.75;;;14.57;100.00
59513;BME280;45330;51.634;5.562;2023-07-20T02:11:19;101334.44;;;14.45;100.00
59513;BME280;45330;51.634;5.562;2023-07-20T02:13:44;101336.25;;;14.39;100.00
59513;BME280;45330;51.634;5.562;2023-07-20T02:16:09;101312.97;;;14.19;100.00
59513;BME280;45330;51.634;5.562;2023-07-20T02:18:36;101312.06;;;14.23;100.00
59513;BME280;45330;51.634;5.562;2023-07-20T02:21:02;101340.63;;;14.39;100.00
59513;BME280;45330;51.634;5.562;2023-07-20T02:23:27;101324.25;;;14.23;100.00
59513;BME280;45330;51.634;5.562;2023-07-20T02:25:53;101337.16;;;14.37;100.00
59513;BME280;45330;51.634;5.562;2023-07-20T02:28:18;101308.50;;;14.28;100.00
59513;BME280;45330;51.634;5.562;2023-07-20T02:30:43;101347.63;;;14.37;100.00
59513;BME280;45330;51.634;5.562;2023-07-20T02:33:09;101321.59;;;14.24;100.00
59513;BME280;45330;51.634;5.562;2023-07-20T02:35:34;101321.81;;;14.12;100.00
59513;BME280;45330;51.634;5.562;2023-07-20T02:38:00;101352.16;;;14.26;100.00
59513;BME280;45330;51.634;5.562;2023-07-20T02:40:25;101328.00;;;14.05;100.00
59513;BME280;45330;51.634;5.562;2023-07-20T02:42:50;101358.44;;;14.12;100.00
59513;BME280;45330;51.634;5.562;2023-07-20T02:45:16;101357.50;;;14.15;100.00
59513;BME280;45330;51.634;5.562;2023-07-20T02:47:42;101351.38;;;14.17;100.00
59513;BME280;45330;51.634;5.562;2023-07-20T02:50:08;101359.19;;;14.22;100.00
59513;BME280;45330;51.634;5.562;2023-07-20T02:52:33;101366.06;;;14.29;100.00
59513;BME280;45330;51.634;5.562;2023-07-20T02:54:59;101354.00;;;14.17;100.00
59513;BME280;45330;51.634;5.562;2023-07-20T02:57:24;101377.34;;;14.33;100.00
59513;BME280;45330;51.634;5.562;2023-07-20T02:59:50;101377.31;;;14.36;100.00
59513;BME280;45330;51.634;5.562;2023-07-20T03:02:15;101382.56;;;14.34;100.00
59513;BME280;45330;51.634;5.562;2023-07-20T03:04:40;101354.84;;;14.19;100.00
59513;BME280;45330;51.634;5.562;2023-07-20T03:07:06;101364.44;;;14.20;100.00
59513;BME280;45330;51.634;5.562;2023-07-20T03:09:32;101390.53;;;14.27;100.00
59513;BME280;45330;51.634;5.562;2023-07-20T03:11:58;101391.53;;;14.16;100.00
59513;BME280;45330;51.634;5.562;2023-07-20T03:14:23;101369.94;;;13.99;100.00
59513;BME280;45330;51.634;5.562;2023-07-20T03:16:49;101395.88;;;14.16;100.00
59513;BME280;45330;51.634;5.562;2023-07-20T03:19:14;101369.09;;;13.97;100.00
59513;BME280;45330;51.634;5.562;2023-07-20T03:21:40;101405.47;;;14.18;100.00
59513;BME280;45330;51.634;5.562;2023-07-20T03:24:07;101356.16;;;13.83;100.00
59513;BME280;45330;51.634;5.562;2023-07-20T03:26:33;101398.72;;;13.99;100.00
59513;BME280;45330;51.634;5.562;2023-07-20T03:28:59;101398.75;;;13.96;100.00
59513;BME280;45330;51.634;5.562;2023-07-20T03:31:25;101399.72;;;13.88;100.00
59513;BME280;45330;51.634;5.562;2023-07-20T03:33:51;101392.81;;;13.78;100.00
59513;BME280;45330;51.634;5.562;2023-07-20T03:36:17;101405.09;;;13.73;100.00
59513;BME280;45330;51.634;5.562;2023-07-20T03:38:42;101395.59;;;13.63;100.00
59513;BME280;45330;51.634;5.562;2023-07-20T03:41:08;101378.25;;;13.52;100.00
59513;BME280;45330;51.634;5.562;2023-07-20T03:43:34;101411.28;;;13.66;100.00
59513;BME280;45330;51.634;5.562;2023-07-20T03:45:59;101405.19;;;13.62;100.00
59513;BME280;45330;51.634;5.562;2023-07-20T03:48:25;101413.06;;;13.59;100.00
59513;BME280;45330;51.634;5.562;2023-07-20T03:50:52;101384.50;;;13.41;100.00
59513;BME280;45330;51.634;5.562;2023-07-20T03:53:17;101406.22;;;13.49;100.00
59513;BME280;45330;51.634;5.562;2023-07-20T03:55:47;101405.31;;;13.48;100.00
59513;BME280;45330;51.634;5.562;2023-07-20T03:58:13;101384.53;;;13.31;100.00
59513;BME280;45330;51.634;5.562;2023-07-20T04:00:38;101393.25;;;13.33;100.00
59513;BME280;45330;51.634;5.562;2023-07-20T04:03:04;101415.78;;;13.47;100.00
59513;BME280;45330;51.634;5.562;2023-07-20T04:05:30;101362.00;;;13.15;100.00
59513;BME280;45330;51.634;5.562;2023-07-20T04:07:55;101391.47;;;13.34;100.00
59513;BME280;45330;51.634;5.562;2023-07-20T04:10:20;101420.09;;;13.52;100.00
59513;BME280;45330;51.634;5.562;2023-07-20T04:12:46;101427.06;;;13.55;100.00
59513;BME280;45330;51.634;5.562;2023-07-20T04:15:14;101428.81;;;13.51;100.00
59513;BME280;45330;51.634;5.562;2023-07-20T04:17:40;101420.97;;;13.54;100.00
59513;BME280;45330;51.634;5.562;2023-07-20T04:20:06;101419.16;;;13.60;100.00
59513;BME280;45330;51.634;5.562;2023-07-20T04:22:32;101414.06;;;13.49;100.00
59513;BME280;45330;51.634;5.562;2023-07-20T04:24:57;101416.59;;;13.57;100.00
59513;BME280;45330;51.634;5.562;2023-07-20T04:27:23;101383.63;;;13.34;100.00
59513;BME280;45330;51.634;5.562;2023-07-20T04:29:48;101417.44;;;13.59;100.00
59513;BME280;45330;51.634;5.562;2023-07-20T04:32:13;101399.28;;;13.43;100.00
59513;BME280;45330;51.634;5.562;2023-07-20T04:34:39;101401.03;;;13.41;100.00
59513;BME280;45330;51.634;5.562;2023-07-20T04:37:04;101432.19;;;13.66;100.00
59513;BME280;45330;51.634;5.562;2023-07-20T04:39:30;101427.03;;;13.58;100.00
59513;BME280;45330;51.634;5.562;2023-07-20T04:41:56;101427.91;;;13.60;100.00
59513;BME280;45330;51.634;5.562;2023-07-20T04:44:21;101425.22;;;13.66;100.00
59513;BME280;45330;51.634;5.562;2023-07-20T04:46:47;101404.63;;;14.13;100.00
59513;BME280;45330;51.634;5.562;2023-07-20T04:49:12;101393.00;;;15.01;100.00
59513;BME280;45330;51.634;5.562;2023-07-20T04:51:38;101427.03;;;16.06;100.00
59513;BME280;45330;51.634;5.562;2023-07-20T04:54:04;101404.63;;;16.33;100.00
59513;BME280;45330;51.634;5.562;2023-07-20T04:56:29;101418.56;;;16.76;100.00
59513;BME280;45330;51.634;5.562;2023-07-20T04:58:54;101402.75;;;17.17;100.00
59513;BME280;45330;51.634;5.562;2023-07-20T05:01:20;101421.81;;;17.59;100.00
59513;BME280;45330;51.634;5.562;2023-07-20T05:03:45;101424.09;;;18.08;100.00
59513;BME280;45330;51.634;5.562;2023-07-20T05:06:10;101404.38;;;18.21;100.00
59513;BME280;45330;51.634;5.562;2023-07-20T05:08:36;101406.25;;;18.47;100.00
59513;BME280;45330;51.634;5.562;2023-07-20T05:11:01;101420.78;;;18.91;100.00
59513;BME280;45330;51.634;5.562;2023-07-20T05:13:27;101415.19;;;19.00;100.00
59513;BME280;45330;51.634;5.562;2023-07-20T05:15:52;101427.44;;;18.73;100.00
59513;BME280;45330;51.634;5.562;2023-07-20T05:18:18;101432.50;;;18.50;100.00
59513;BME280;45330;51.634;5.562;2023-07-20T05:20:49;101428.94;;;18.81;100.00
59513;BME280;45330;51.634;5.562;2023-07-20T05:23:17;101443.13;;;18.77;100.00
59513;BME280;45330;51.634;5.562;2023-07-20T05:25:43;101406.25;;;18.76;100.00
59513;BME280;45330;51.634;5.562;2023-07-20T05:28:08;101412.66;;;18.39;100.00
59513;BME280;45330;51.634;5.562;2023-07-20T05:30:34;101436.19;;;18.75;100.00
59513;BME280;45330;51.634;5.562;2023-07-20T05:32:59;101409.72;;;18.48;100.00
59513;BME280;45330;51.634;5.562;2023-07-20T05:35:26;101433.78;;;18.07;100.00
59513;BME280;45330;51.634;5.562;2023-07-20T05:37:52;101406.22;;;17.53;100.00
59513;BME280;45330;51.634;5.562;2023-07-20T05:40:17;101434.00;;;17.98;100.00
59513;BME280;45330;51.634;5.562;2023-07-20T05:42:47;101436.59;;;18.61;100.00
59513;BME280;45330;51.634;5.562;2023-07-20T05:45:14;101414.22;;;19.29;100.00
59513;BME280;45330;51.634;5.562;2023-07-20T05:47:41;101420.56;;;19.50;100.00
59513;BME280;45330;51.634;5.562;2023-07-20T05:50:06;101434.94;;;19.94;100.00
59513;BME280;45330;51.634;5.562;2023-07-20T05:52:32;101432.97;;;20.48;100.00
59513;BME280;45330;51.634;5.562;2023-07-20T05:54:57;101464.59;;;20.75;100.00
59513;BME280;45330;51.634;5.562;2023-07-20T05:57:22;101443.34;;;20.52;100.00
59513;BME280;45330;51.634;5.562;2023-07-20T05:59:48;101448.44;;;20.10;100.00
59513;BME280;45330;51.634;5.562;2023-07-20T06:02:13;101469.16;;;19.97;100.00
59513;BME280;45330;51.634;5.562;2023-07-20T06:04:39;101451.19;;;20.07;100.00
59513;BME280;45330;51.634;5.562;2023-07-20T06:07:05;101471.34;;;20.58;100.00
59513;BME280;45330;51.634;5.562;2023-07-20T06:09:30;101449.75;;;21.15;100.00
59513;BME280;45330;51.634;5.562;2023-07-20T06:11:56;101443.66;;;21.13;100.00
59513;BME280;45330;51.634;5.562;2023-07-20T06:14:22;101456.69;;;20.49;100.00
59513;BME280;45330;51.634;5.562;2023-07-20T06:16:47;101483.56;;;19.88;100.00
59513;BME280;45330;51.634;5.562;2023-07-20T06:19:12;101473.41;;;20.26;100.00
59513;BME280;45330;51.634;5.562;2023-07-20T06:21:38;101475.59;;;20.62;100.00
59513;BME280;45330;51.634;5.562;2023-07-20T06:24:04;101464.78;;;20.21;100.00
59513;BME280;45330;51.634;5.562;2023-07-20T06:26:30;101471.69;;;19.75;100.00
59513;BME280;45330;51.634;5.562;2023-07-20T06:28:56;101485.81;;;18.60;100.00
59513;BME280;45330;51.634;5.562;2023-07-20T06:31:21;101452.16;;;17.74;100.00
59513;BME280;45330;51.634;5.562;2023-07-20T06:33:47;101483.75;;;18.09;100.00
59513;BME280;45330;51.634;5.562;2023-07-20T06:36:12;101455.66;;;19.54;100.00
59513;BME280;45330;51.634;5.562;2023-07-20T06:38:38;101483.13;;;20.73;100.00
59513;BME280;45330;51.634;5.562;2023-07-20T06:41:03;101485.28;;;21.53;100.00
59513;BME280;45330;51.634;5.562;2023-07-20T06:43:29;101477.94;;;21.81;100.00
59513;BME280;45330;51.634;5.562;2023-07-20T06:45:54;101481.16;;;21.24;100.00
59513;BME280;45330;51.634;5.562;2023-07-20T06:48:20;101474.44;;;20.46;100.00
59513;BME280;45330;51.634;5.562;2023-07-20T06:50:45;101466.63;;;19.94;100.00
59513;BME280;45330;51.634;5.562;2023-07-20T06:53:11;101473.00;;;19.88;100.00
59513;BME280;45330;51.634;5.562;2023-07-20T06:55:36;101442.34;;;19.57;100.00
59513;BME280;45330;51.634;5.562;2023-07-20T06:58:01;101473.56;;;19.71;100.00
59513;BME280;45330;51.634;5.562;2023-07-20T07:00:28;101448.75;;;19.50;100.00
59513;BME280;45330;51.634;5.562;2023-07-20T07:02:53;101478.13;;;18.82;100.00
59513;BME280;45330;51.634;5.562;2023-07-20T07:05:19;101483.94;;;18.34;100.00
59513;BME280;45330;51.634;5.562;2023-07-20T07:07:44;101481.38;;;17.99;100.00
59513;BME280;45330;51.634;5.562;2023-07-20T07:10:10;101472.22;;;17.45;100.00
59513;BME280;45330;51.634;5.562;2023-07-20T07:12:35;101478.66;;;17.32;100.00
59513;BME280;45330;51.634;5.562;2023-07-20T07:15:02;101480.44;;;17.31;100.00
59513;BME280;45330;51.634;5.562;2023-07-20T07:17:27;101473.84;;;17.49;100.00
59513;BME280;45330;51.634;5.562;2023-07-20T07:19:53;101474.19;;;17.70;100.00
59513;BME280;45330;51.634;5.562;2023-07-20T07:22:22;101461.53;;;17.84;100.00
59513;BME280;45330;51.634;5.562;2023-07-20T07:24:47;101491.19;;;18.26;100.00
59513;BME280;45330;51.634;5.562;2023-07-20T07:27:13;101464.84;;;18.26;100.00
59513;BME280;45330;51.634;5.562;2023-07-20T07:29:41;101491.53;;;18.45;100.00
59513;BME280;45330;51.634;5.562;2023-07-20T07:32:07;101496.88;;;18.42;100.00
59513;BME280;45330;51.634;5.562;2023-07-20T07:34:32;101479.53;;;18.34;100.00
59513;BME280;45330;51.634;5.562;2023-07-20T07:36:59;101492.06;;;18.56;100.00
59513;BME280;45330;51.634;5.562;2023-07-20T07:39:25;101491.13;;;18.59;100.00
59513;BME280;45330;51.634;5.562;2023-07-20T07:41:50;101484.88;;;18.31;100.00
59513;BME280;45330;51.634;5.562;2023-07-20T07:44:17;101486.50;;;18.04;100.00
59513;BME280;45330;51.634;5.562;2023-07-20T07:46:42;101472.28;;;17.77;100.00
59513;BME280;45330;51.634;5.562;2023-07-20T07:49:08;101492.75;;;18.02;100.00
59513;BME280;45330;51.634;5.562;2023-07-20T07:51:33;101487.44;;;18.03;100.00
59513;BME280;45330;51.634;5.562;2023-07-20T07:53:59;101508.75;;;18.25;100.00
59513;BME280;45330;51.634;5.562;2023-07-20T07:56:24;101503.19;;;18.36;100.00
59513;BME280;45330;51.634;5.562;2023-07-20T07:58:50;101486.44;;;18.06;100.00
59513;BME280;45330;51.634;5.562;2023-07-20T08:01:17;101505.19;;;17.95;100.00
59513;BME280;45330;51.634;5.562;2023-07-20T08:03:44;101491.13;;;17.60;100.00
59513;BME280;45330;51.634;5.562;2023-07-20T08:06:11;101508.69;;;17.59;100.00
59513;BME280;45330;51.634;5.562;2023-07-20T08:08:36;101510.44;;;17.59;100.00
59513;BME280;45330;51.634;5.562;2023-07-20T08:11:02;101513.47;;;17.79;100.00
59513;BME280;45330;51.634;5.562;2023-07-20T08:13:27;101509.34;;;17.67;100.00
59513;BME280;45330;51.634;5.562;2023-07-20T08:15:53;101503.06;;;17.73;100.00
59513;BME280;45330;51.634;5.562;2023-07-20T08:18:18;101510.00;;;18.12;100.00
59513;BME280;45330;51.634;5.562;2023-07-20T08:20:45;101502.69;;;18.23;100.00
59513;BME280;45330;51.634;5.562;2023-07-20T08:23:10;101517.63;;;18.54;100.00
59513;BME280;45330;51.634;5.562;2023-07-20T08:25:36;101507.31;;;18.76;100.00
59513;BME280;45330;51.634;5.562;2023-07-20T08:28:04;101528.13;;;19.15;100.00
59513;BME280;45330;51.634;5.562;2023-07-20T08:30:43;101515.03;;;19.41;100.00
59513;BME280;45330;51.634;5.562;2023-07-20T08:33:10;101528.16;;;19.44;100.00
59513;BME280;45330;51.634;5.562;2023-07-20T08:35:36;101491.03;;;19.48;100.00
59513;BME280;45330;51.634;5.562;2023-07-20T08:38:01;101500.84;;;19.70;100.00
59513;BME280;45330;51.634;5.562;2023-07-20T08:40:27;101498.09;;;19.48;100.00
59513;BME280;45330;51.634;5.562;2023-07-20T08:42:54;101523.16;;;19.34;100.00
59513;BME280;45330;51.634;5.562;2023-07-20T08:45:22;101500.16;;;19.11;100.00
59513;BME280;45330;51.634;5.562;2023-07-20T08:47:50;101502.63;;;18.88;100.00
59513;BME280;45330;51.634;5.562;2023-07-20T08:50:16;101505.09;;;18.62;100.00
59513;BME280;45330;51.634;5.562;2023-07-20T08:52:41;101515.69;;;18.61;100.00
59513;BME280;45330;51.634;5.562;2023-07-20T08:55:07;101522.25;;;18.76;100.00
59513;BME280;45330;51.634;5.562;2023-07-20T08:57:33;101494.81;;;18.53;100.00
59513;BME280;45330;51.634;5.562;2023-07-20T09:00:00;101515.78;;;18.56;100.00
59513;BME280;45330;51.634;5.562;2023-07-20T09:02:30;101516.34;;;18.67;100.00
59513;BME280;45330;51.634;5.562;2023-07-20T09:04:58;101517.34;;;18.95;100.00
59513;BME280;45330;51.634;5.562;2023-07-20T09:07:23;101525.00;;;19.32;100.00
59513;BME280;45330;51.634;5.562;2023-07-20T09:09:50;101500.13;;;19.40;100.00
59513;BME280;45330;51.634;5.562;2023-07-20T09:12:15;101517.19;;;19.83;100.00
59513;BME280;45330;51.634;5.562;2023-07-20T09:14:43;101503.44;;;19.98;100.00
59513;BME280;45330;51.634;5.562;2023-07-20T09:17:12;101521.25;;;20.44;100.00
59513;BME280;45330;51.634;5.562;2023-07-20T09:19:39;101517.81;;;20.89;100.00
59513;BME280;45330;51.634;5.562;2023-07-20T09:22:05;101520.78;;;21.25;100.00
59513;BME280;45330;51.634;5.562;2023-07-20T09:24:31;101519.38;;;21.61;95.56
59513;BME280;45330;51.634;5.562;2023-07-20T09:27:01;101514.47;;;21.72;91.76
59513;BME280;45330;51.634;5.562;2023-07-20T09:29:29;101519.13;;;21.67;88.93
59513;BME280;45330;51.634;5.562;2023-07-20T09:32:03;101514.75;;;21.22;86.51
59513;BME280;45330;51.634;5.562;2023-07-20T09:34:30;101501.63;;;21.19;89.69
59513;BME280;45330;51.634;5.562;2023-07-20T09:36:59;101492.13;;;20.91;81.09
59513;BME280;45330;51.634;5.562;2023-07-20T09:39:24;101503.84;;;21.07;86.38
59513;BME280;45330;51.634;5.562;2023-07-20T09:41:51;101501.63;;;21.19;85.89
59513;BME280;45330;51.634;5.562;2023-07-20T09:44:17;101500.91;;;21.15;85.15
59513;BME280;45330;51.634;5.562;2023-07-20T09:46:44;101485.75;;;20.97;87.22
59513;BME280;45330;51.634;5.562;2023-07-20T09:49:10;101497.56;;;21.10;91.62
59513;BME280;45330;51.634;5.562;2023-07-20T09:51:36;101486.72;;;21.16;91.52
59513;BME280;45330;51.634;5.562;2023-07-20T09:54:02;101476.06;;;21.18;91.15
59513;BME280;45330;51.634;5.562;2023-07-20T09:56:30;101489.56;;;21.34;87.85
59513;BME280;45330;51.634;5.562;2023-07-20T09:58:56;101478.44;;;21.68;88.21
59513;BME280;45330;51.634;5.562;2023-07-20T10:01:22;101493.09;;;21.98;83.35
59513;BME280;45330;51.634;5.562;2023-07-20T10:03:49;101475.50;;;22.16;79.16
59513;BME280;45330;51.634;5.562;2023-07-20T10:06:20;101497.09;;;22.27;78.53
59513;BME280;45330;51.634;5.562;2023-07-20T10:08:47;101475.81;;;21.89;77.76
59513;BME280;45330;51.634;5.562;2023-07-20T10:11:15;101494.88;;;21.97;75.72
59513;BME280;45330;51.634;5.562;2023-07-20T10:13:41;101492.56;;;22.10;72.38
59513;BME280;45330;51.634;5.562;2023-07-20T10:16:14;101489.59;;;22.57;79.42
59513;BME280;45330;51.634;5.562;2023-07-20T10:18:51;101490.59;;;23.10;74.73
59513;BME280;45330;51.634;5.562;2023-07-20T10:21:21;101485.97;;;23.33;73.51
59513;BME280;45330;51.634;5.562;2023-07-20T10:23:49;101481.38;;;23.54;71.82
59513;BME280;45330;51.634;5.562;2023-07-20T10:26:15;101476.72;;;23.59;66.53
59513;BME280;45330;51.634;5.562;2023-07-20T10:28:41;101483.84;;;23.59;64.91
59513;BME280;45330;51.634;5.562;2023-07-20T10:31:12;101454.06;;;23.52;66.25
59513;BME280;45330;51.634;5.562;2023-07-20T10:33:38;101476.16;;;23.70;64.79
59513;BME280;45330;51.634;5.562;2023-07-20T10:36:05;101467.19;;;23.55;62.63
59513;BME280;45330;51.634;5.562;2023-07-20T10:38:52;101446.78;;;23.38;70.56
59513;BME280;45330;51.634;5.562;2023-07-20T10:41:22;101468.59;;;22.89;66.31
59513;BME280;45330;51.634;5.562;2023-07-20T10:43:58;101435.75;;;22.36;63.80
59513;BME280;45330;51.634;5.562;2023-07-20T10:49:09;101470.34;;;22.33;67.24
59513;BME280;45330;51.634;5.562;2023-07-20T10:51:42;101461.03;;;22.43;72.27
59513;BME280;45330;51.634;5.562;2023-07-20T10:56:40;101460.44;;;22.75;66.43
59513;BME280;45330;51.634;5.562;2023-07-20T10:59:18;101461.53;;;22.90;67.22
59513;BME280;45330;51.634;5.562;2023-07-20T11:01:44;101461.56;;;23.07;65.91
59513;BME280;45330;51.634;5.562;2023-07-20T11:04:10;101430.13;;;23.17;64.92
59513;BME280;45330;51.634;5.562;2023-07-20T11:06:36;101435.16;;;23.41;63.73
59513;BME280;45330;51.634;5.562;2023-07-20T11:09:08;101433.03;;;23.30;59.67
59513;BME280;45330;51.634;5.562;2023-07-20T11:11:40;101457.41;;;23.38;60.53
59513;BME280;45330;51.634;5.562;2023-07-20T11:14:07;101458.19;;;23.58;58.47
59513;BME280;45330;51.634;5.562;2023-07-20T11:19:06;101430.84;;;23.38;57.98
59513;BME280;45330;51.634;5.562;2023-07-20T11:21:36;101447.00;;;23.16;55.62
59513;BME280;45330;51.634;5.562;2023-07-20T11:24:04;101444.38;;;22.97;57.66
59513;BME280;45330;51.634;5.562;2023-07-20T11:26:30;101444.41;;;23.15;58.83
59513;BME280;45330;51.634;5.562;2023-07-20T11:28:55;101443.72;;;23.28;60.61
59513;BME280;45330;51.634;5.562;2023-07-20T11:31:20;101426.25;;;23.42;60.48
59513;BME280;45330;51.634;5.562;2023-07-20T11:33:46;101418.59;;;23.53;55.85
59513;BME280;45330;51.634;5.562;2023-07-20T11:36:11;101426.47;;;23.55;56.37
59513;BME280;45330;51.634;5.562;2023-07-20T11:38:39;101434.09;;;23.96;57.81
59513;BME280;45330;51.634;5.562;2023-07-20T11:41:06;101422.00;;;24.24;55.46
59513;BME280;45330;51.634;5.562;2023-07-20T11:43:32;101417.25;;;24.13;56.28
59513;BME280;45330;51.634;5.562;2023-07-20T11:45:57;101436.56;;;24.17;57.61
59513;BME280;45330;51.634;5.562;2023-07-20T11:48:23;101417.81;;;23.69;58.95
59513;BME280;45330;51.634;5.562;2023-07-20T11:50:48;101428.50;;;23.50;58.13
59513;BME280;45330;51.634;5.562;2023-07-20T11:53:14;101404.91;;;23.26;58.66
59513;BME280;45330;51.634;5.562;2023-07-20T11:55:41;101406.22;;;22.81;59.00
59513;BME280;45330;51.634;5.562;2023-07-20T11:58:08;101424.63;;;22.66;62.15
59513;BME280;45330;51.634;5.562;2023-07-20T12:00:35;101413.81;;;22.52;62.95
59513;BME280;45330;51.634;5.562;2023-07-20T12:03:00;101424.34;;;22.34;61.04
59513;BME280;45330;51.634;5.562;2023-07-20T12:05:26;101407.66;;;22.12;63.70
59513;BME280;45330;51.634;5.562;2023-07-20T12:07:53;101424.16;;;22.18;64.14
59513;BME280;45330;51.634;5.562;2023-07-20T12:10:27;101415.00;;;22.44;63.46
59513;BME280;45330;51.634;5.562;2023-07-20T12:12:54;101418.91;;;22.93;60.77
59513;BME280;45330;51.634;5.562;2023-07-20T12:15:25;101409.75;;;23.18;59.83
59513;BME280;45330;51.634;5.562;2023-07-20T12:18:02;101399.56;;;23.08;60.61
59513;BME280;45330;51.634;5.562;2023-07-20T12:20:35;101392.09;;;23.34;61.13
59513;BME280;45330;51.634;5.562;2023-07-20T12:23:08;101423.56;;;23.77;59.60
59513;BME280;45330;51.634;5.562;2023-07-20T12:28:04;101391.75;;;24.09;55.06
59513;BME280;45330;51.634;5.562;2023-07-20T12:30:29;101395.03;;;24.14;55.38
59513;BME280;45330;51.634;5.562;2023-07-20T12:32:55;101404.56;;;23.85;54.47
59513;BME280;45330;51.634;5.562;2023-07-20T12:35:20;101413.28;;;23.53;55.06
59513;BME280;45330;51.634;5.562;2023-07-20T12:37:46;101397.38;;;23.69;56.50
59513;BME280;45330;51.634;5.562;2023-07-20T12:40:14;101409.56;;;23.91;56.85
59513;BME280;45330;51.634;5.562;2023-07-20T12:42:39;101390.91;;;23.92;55.82
59513;BME280;45330;51.634;5.562;2023-07-20T12:45:06;101412.47;;;24.20;54.67
59513;BME280;45330;51.634;5.562;2023-07-20T12:47:32;101409.22;;;24.30;55.65
59513;BME280;45330;51.634;5.562;2023-07-20T12:49:57;101410.50;;;24.39;56.18
59513;BME280;45330;51.634;5.562;2023-07-20T12:52:22;101406.56;;;24.46;52.68
59513;BME280;45330;51.634;5.562;2023-07-20T12:54:48;101406.28;;;24.51;52.90
59513;BME280;45330;51.634;5.562;2023-07-20T12:57:13;101377.03;;;24.35;54.39
59513;BME280;45330;51.634;5.562;2023-07-20T12:59:38;101406.28;;;24.51;52.85